createdAt,value
2018-03-20T00:00:39.245Z,93369.84
2018-03-20T00:03:07.694Z,93393.94
2018-03-20T00:05:36.080Z,93398.81
2018-03-20T00:08:04.496Z,93392.42
2018-03-20T00:10:32.892Z,93389.10
2018-03-20T00:13:01.301Z,93388.79
2018-03-20T00:15:29.708Z,93369.84
2018-03-20T00:17:58.112Z,93394.25
2018-03-20T00:20:26.514Z,93405.12
2018-03-20T00:22:54.892Z,93403.14
2018-03-20T00:25:23.374Z,93408.30
2018-03-20T00:27:51.740Z,93397.12
2018-03-20T00:30:20.238Z,93376.69
2018-03-20T00:32:48.667Z,93391.62
2018-03-20T00:35:17.073Z,93394.57
2018-03-20T00:37:45.469Z,93411.06
2018-03-20T00:40:13.912Z,93398.92
2018-03-20T00:42:42.317Z,93396.52
2018-03-20T00:45:10.720Z,93390.53
2018-03-20T00:47:39.135Z,93376.20
2018-03-20T00:50:07.532Z,93379.56
2018-03-20T00:52:35.976Z,93383.67
2018-03-20T00:55:04.417Z,93382.97
2018-03-20T00:57:32.806Z,93377.48
2018-03-20T01:00:01.224Z,93377.78
2018-03-20T01:02:29.625Z,93382.77
2018-03-20T01:04:58.024Z,93382.72
2018-03-20T01:07:26.465Z,93383.78
2018-03-20T01:09:54.893Z,93397.36
2018-03-20T01:12:23.299Z,93393.29
2018-03-20T01:14:51.742Z,93389.45
2018-03-20T01:17:20.268Z,93399.13
2018-03-20T01:19:48.704Z,93400.33
2018-03-20T01:22:17.128Z,93396.77
2018-03-20T01:24:45.536Z,93398.88
2018-03-20T01:27:14.069Z,93400.56
2018-03-20T01:29:42.456Z,93405.69
2018-03-20T01:32:10.821Z,93415.31
2018-03-20T01:34:39.227Z,93409.69
2018-03-20T01:37:07.633Z,93418.53
2018-03-20T01:39:36.012Z,93421.48
2018-03-20T01:42:04.442Z,93431.73
2018-03-20T01:44:32.912Z,93424.88
2018-03-20T01:47:01.290Z,93426.38
2018-03-20T01:49:29.765Z,93434.47
2018-03-20T01:51:58.165Z,93431.58
2018-03-20T01:54:26.552Z,93429.25
2018-03-20T01:56:54.974Z,93433.69
2018-03-20T01:59:23.340Z,93424.61
2018-03-20T02:01:51.764Z,93423.25
2018-03-20T02:04:20.143Z,93424.07
2018-03-20T02:06:48.589Z,93432.56
2018-03-20T02:09:17.004Z,93417.24
2018-03-20T02:11:45.365Z,93436.41
2018-03-20T02:14:13.783Z,93439.07
2018-03-20T02:16:42.149Z,93438.02
2018-03-20T02:19:10.692Z,93435.33
2018-03-20T02:21:39.259Z,93441.16
2018-03-20T02:24:07.652Z,93434.09
2018-03-20T02:26:36.380Z,93432.47
2018-03-20T02:29:04.736Z,93432.90
2018-03-20T02:31:33.200Z,93431.75
2018-03-20T02:34:01.624Z,93435.50
2018-03-20T02:36:30.030Z,93424.94
2018-03-20T02:38:58.407Z,93422.63
2018-03-20T02:41:26.837Z,93430.17
2018-03-20T02:43:55.387Z,93424.28
2018-03-20T02:46:23.800Z,93423.85
2018-03-20T02:48:52.268Z,93424.07
2018-03-20T02:51:20.674Z,93424.08
2018-03-20T02:53:49.116Z,93422.78
2018-03-20T02:56:17.472Z,93425.14
2018-03-20T02:58:45.855Z,93416.30
2018-03-20T03:01:14.313Z,93424.58
2018-03-20T03:03:42.756Z,93424.63
2018-03-20T03:06:11.200Z,93433.91
2018-03-20T03:08:39.621Z,93432.92
2018-03-20T03:11:08.030Z,93429.46
2018-03-20T03:13:36.422Z,93436.57
2018-03-20T03:16:04.840Z,93431.44
2018-03-20T03:18:33.257Z,93430.75
2018-03-20T03:21:04.029Z,93434.56
2018-03-20T03:23:32.384Z,93431.30
2018-03-20T03:26:00.752Z,93441.08
2018-03-20T03:28:29.161Z,93436.44
2018-03-20T03:30:57.569Z,93439.17
2018-03-20T03:33:25.956Z,93443.55
2018-03-20T03:35:54.356Z,93443.98
2018-03-20T03:38:24.115Z,93440.47
2018-03-20T03:40:52.633Z,93451.06
2018-03-20T03:43:21.251Z,93457.38
2018-03-20T03:45:49.712Z,93452.02
2018-03-20T03:48:18.140Z,93455.73
2018-03-20T03:50:46.628Z,93452.17
2018-03-20T03:53:14.976Z,93454.97
2018-03-20T03:55:43.407Z,93451.88
2018-03-20T03:58:11.854Z,93457.43
2018-03-20T04:00:40.276Z,93456.67
2018-03-20T04:03:08.716Z,93465.70
2018-03-20T04:05:37.072Z,93463.98
2018-03-20T04:08:05.496Z,93420.50
2018-03-20T04:10:33.932Z,93466.12
2018-03-20T04:13:02.346Z,93470.21
2018-03-20T04:15:30.788Z,93472.74
2018-03-20T04:17:59.207Z,93468.13
2018-03-20T04:20:27.672Z,93467.83
2018-03-20T04:22:56.132Z,93480.25
2018-03-20T04:25:24.592Z,93481.63
2018-03-20T04:27:53.005Z,93488.34
2018-03-20T04:30:21.436Z,93484.95
2018-03-20T04:32:49.889Z,93490.58
2018-03-20T04:35:18.262Z,93450.07
2018-03-20T04:37:46.681Z,93502.59
2018-03-20T04:40:15.104Z,93508.68
2018-03-20T04:42:43.573Z,93513.45
2018-03-20T04:45:11.972Z,93512.40
2018-03-20T04:47:40.381Z,93525.72
2018-03-20T04:50:08.778Z,93526.70
2018-03-20T04:52:37.185Z,93532.25
2018-03-20T04:55:05.765Z,93535.14
2018-03-20T04:57:34.185Z,93542.92
2018-03-20T05:00:02.671Z,93541.94
2018-03-20T05:02:31.121Z,93542.70
2018-03-20T05:04:59.555Z,93548.33
2018-03-20T05:07:27.965Z,93541.25
2018-03-20T05:09:56.326Z,93549.03
2018-03-20T05:12:24.729Z,93551.98
2018-03-20T05:14:53.144Z,93550.00
2018-03-20T05:17:21.597Z,93552.06
2018-03-20T05:19:53.549Z,93557.97
2018-03-20T05:25:27.463Z,93560.92
2018-03-20T05:27:55.883Z,93564.13
2018-03-20T05:30:24.388Z,93571.64
2018-03-20T05:32:52.834Z,93581.48
2018-03-20T05:35:21.280Z,93576.38
2018-03-20T05:37:49.639Z,93584.82
2018-03-20T05:40:18.097Z,93595.55
2018-03-20T05:42:46.712Z,93589.66
2018-03-20T05:45:15.091Z,93594.05
2018-03-20T05:50:48.468Z,93594.91
2018-03-20T05:53:16.967Z,93610.31
2018-03-20T05:55:45.484Z,93606.52
2018-03-20T05:58:13.852Z,93614.39
2018-03-20T06:00:42.220Z,93615.14
2018-03-20T06:03:10.663Z,93613.50
2018-03-20T06:05:39.124Z,93621.98
2018-03-20T06:08:07.552Z,93581.33
2018-03-20T06:10:35.977Z,93620.23
2018-03-20T06:13:04.423Z,93628.72
2018-03-20T06:15:32.843Z,93637.40
2018-03-20T06:18:01.217Z,93629.20
2018-03-20T06:20:29.621Z,93644.13
2018-03-20T06:22:58.004Z,93654.64
2018-03-20T06:25:26.451Z,93655.24
2018-03-20T06:27:54.962Z,93653.61
2018-03-20T06:30:23.421Z,93655.76
2018-03-20T06:32:51.848Z,93647.88
2018-03-20T06:35:20.268Z,93645.62
2018-03-20T06:37:48.658Z,93648.61
2018-03-20T06:40:17.000Z,93652.17
2018-03-20T06:42:45.426Z,93657.52
2018-03-20T06:45:14.414Z,93662.00
2018-03-20T06:47:42.803Z,93662.05
2018-03-20T06:50:11.220Z,93674.05
2018-03-20T06:52:39.679Z,93667.16
2018-03-20T06:55:08.064Z,93648.66
2018-03-20T06:57:36.485Z,93675.48
2018-03-20T07:00:04.965Z,93646.37
2018-03-20T07:02:33.398Z,93670.89
2018-03-20T07:05:01.784Z,93675.39
2018-03-20T07:07:30.161Z,93679.16
2018-03-20T07:09:58.680Z,93677.84
2018-03-20T07:12:27.054Z,93661.93
2018-03-20T07:14:55.449Z,93673.44
2018-03-20T07:17:23.972Z,93678.81
2018-03-20T07:19:52.444Z,93678.85
2018-03-20T07:22:20.872Z,93673.25
2018-03-20T07:24:49.268Z,93678.75
2018-03-20T07:27:17.785Z,93686.69
2018-03-20T07:29:46.379Z,93675.68
2018-03-20T07:32:14.936Z,93683.89
2018-03-20T07:34:43.339Z,93691.66
2018-03-20T07:37:11.697Z,93685.41
2018-03-20T07:39:40.182Z,93695.91
2018-03-20T07:42:08.573Z,93700.75
2018-03-20T07:44:37.027Z,93705.06
2018-03-20T07:47:05.401Z,93715.11
2018-03-20T07:49:34.000Z,93718.45
2018-03-20T07:52:02.456Z,93727.33
2018-03-20T07:54:30.877Z,93739.39
2018-03-20T07:56:59.287Z,93733.25
2018-03-20T07:59:27.685Z,93736.45
2018-03-20T08:01:56.049Z,93734.27
2018-03-20T08:04:24.443Z,93733.19
2018-03-20T08:06:52.814Z,93739.05
2018-03-20T08:09:21.240Z,93723.48
2018-03-20T08:11:49.688Z,93722.02
2018-03-20T08:14:18.068Z,93727.36
2018-03-20T08:16:46.499Z,93709.06
2018-03-20T08:19:14.880Z,93723.41
2018-03-20T08:21:43.315Z,93721.84
2018-03-20T08:24:11.693Z,93726.90
2018-03-20T08:26:40.069Z,93740.58
2018-03-20T08:29:08.474Z,93740.53
2018-03-20T08:31:36.975Z,93742.38
2018-03-20T08:34:05.380Z,93751.70
2018-03-20T08:36:33.750Z,93739.57
2018-03-20T08:39:02.184Z,93742.50
2018-03-20T08:41:30.573Z,93737.19
2018-03-20T08:43:58.989Z,93736.95
2018-03-20T08:46:27.384Z,93740.39
2018-03-20T08:48:55.859Z,93739.98
2018-03-20T08:51:24.252Z,93732.02
2018-03-20T08:53:52.651Z,93731.78
2018-03-20T08:56:21.053Z,93742.08
2018-03-20T08:58:49.454Z,93743.35
2018-03-20T09:01:17.880Z,93746.16
2018-03-20T09:03:46.269Z,93745.98
2018-03-20T09:06:14.687Z,93746.02
2018-03-20T09:08:43.045Z,93739.65
2018-03-20T09:11:11.440Z,93744.92
2018-03-20T09:13:39.825Z,93754.42
2018-03-20T09:16:08.177Z,93748.03
2018-03-20T09:18:36.568Z,93746.70
2018-03-20T09:21:05.170Z,93746.05
2018-03-20T09:23:33.564Z,93752.34
2018-03-20T09:26:01.937Z,93759.67
2018-03-20T09:28:30.344Z,93765.01
2018-03-20T09:30:58.702Z,93757.72
2018-03-20T09:33:27.048Z,93758.63
2018-03-20T09:35:55.444Z,93761.40
2018-03-20T09:38:23.788Z,93755.59
2018-03-20T09:40:52.201Z,93763.86
2018-03-20T09:43:20.556Z,93754.11
2018-03-20T09:45:48.972Z,93781.66
2018-03-20T09:48:17.497Z,93765.87
2018-03-20T09:50:45.940Z,93767.63
2018-03-20T09:53:14.284Z,93779.38
2018-03-20T09:55:42.664Z,93771.73
2018-03-20T09:58:11.028Z,93772.70
2018-03-20T10:00:39.519Z,93783.80
2018-03-20T10:03:07.888Z,93785.81
2018-03-20T10:05:36.233Z,93785.25
2018-03-20T10:08:04.674Z,93788.87
2018-03-20T10:10:33.175Z,93791.20
2018-03-20T10:13:01.581Z,93789.80
2018-03-20T10:15:29.924Z,93789.62
2018-03-20T10:17:58.365Z,93797.09
2018-03-20T10:20:26.729Z,93798.38
2018-03-20T10:22:55.117Z,93805.59
2018-03-20T10:25:23.561Z,93808.45
2018-03-20T10:27:51.913Z,93803.34
2018-03-20T10:30:20.308Z,93810.13
2018-03-20T10:32:48.663Z,93818.56
2018-03-20T10:35:17.073Z,93822.55
2018-03-20T10:37:46.689Z,93820.36
2018-03-20T10:40:15.076Z,93800.95
2018-03-20T10:42:43.464Z,93811.25
2018-03-20T10:45:11.849Z,93815.05
2018-03-20T10:47:40.310Z,93821.52
2018-03-20T10:50:08.848Z,93802.73
2018-03-20T10:52:37.234Z,93822.21
2018-03-20T10:55:05.788Z,93823.70
2018-03-20T10:57:34.189Z,93823.41
2018-03-20T11:00:02.595Z,93831.25
2018-03-20T11:02:31.708Z,93830.89
2018-03-20T11:05:00.113Z,93824.70
2018-03-20T11:07:28.591Z,93825.95
2018-03-20T11:09:57.006Z,93826.52
2018-03-20T11:12:25.372Z,93827.11
2018-03-20T11:14:53.811Z,93832.19
2018-03-20T11:17:22.199Z,93831.38
2018-03-20T11:19:50.600Z,93829.80
2018-03-20T11:22:19.037Z,93825.57
2018-03-20T11:24:47.411Z,93828.69
2018-03-20T11:27:15.844Z,93823.25
2018-03-20T11:29:44.360Z,93829.50
2018-03-20T11:32:12.795Z,93835.91
2018-03-20T11:34:41.202Z,93837.80
2018-03-20T11:37:09.597Z,93834.19
2018-03-20T11:39:38.019Z,93833.29
2018-03-20T11:42:06.377Z,93838.28
2018-03-20T11:44:34.824Z,93815.22
2018-03-20T11:47:03.171Z,93833.96
2018-03-20T11:49:31.523Z,93839.50
2018-03-20T11:51:59.985Z,93835.82
2018-03-20T11:54:28.376Z,93830.97
2018-03-20T11:56:56.742Z,93831.20
2018-03-20T11:59:25.092Z,93844.23
2018-03-20T12:01:53.497Z,93828.20
2018-03-20T12:04:21.864Z,93837.11
2018-03-20T12:06:52.692Z,93839.99
2018-03-20T12:09:32.892Z,93840.70
2018-03-20T12:12:01.293Z,93834.59
2018-03-20T12:14:29.679Z,93766.63
2018-03-20T12:16:58.096Z,93847.64
2018-03-20T12:19:26.481Z,93853.07
2018-03-20T12:21:54.866Z,93839.78
2018-03-20T12:24:23.248Z,93858.93
2018-03-20T12:26:51.650Z,93875.97
2018-03-20T12:29:20.069Z,93852.83
2018-03-20T12:31:48.528Z,93882.61
2018-03-20T12:34:16.906Z,93890.96
2018-03-20T12:36:45.435Z,93886.31
2018-03-20T12:39:13.799Z,93881.54
2018-03-20T12:41:42.248Z,93888.13
2018-03-20T12:44:10.655Z,93876.55
2018-03-20T12:46:39.107Z,93887.63
2018-03-20T12:49:07.461Z,93883.00
2018-03-20T12:51:35.822Z,93878.68
2018-03-20T12:54:04.212Z,93879.69
2018-03-20T12:56:32.621Z,93869.09
2018-03-20T12:59:01.036Z,93875.88
2018-03-20T13:01:29.473Z,93877.03
2018-03-20T13:03:57.900Z,93871.04
2018-03-20T13:06:26.284Z,93869.00
2018-03-20T13:08:54.708Z,93864.16
2018-03-20T13:11:23.136Z,93864.27
2018-03-20T13:13:51.524Z,93861.85
2018-03-20T13:16:19.921Z,93867.69
2018-03-20T13:18:48.310Z,93857.43
2018-03-20T13:21:16.714Z,93857.31
2018-03-20T13:23:45.085Z,93859.89
2018-03-20T13:26:13.693Z,93872.84
2018-03-20T13:28:42.082Z,93862.04
2018-03-20T13:31:10.628Z,93872.91
2018-03-20T13:33:39.053Z,93876.30
2018-03-20T13:36:07.452Z,93873.00
2018-03-20T13:38:35.900Z,93873.75
2018-03-20T13:41:04.278Z,93876.84
2018-03-20T13:43:32.693Z,93887.85
2018-03-20T13:46:01.106Z,93906.06
2018-03-20T13:48:30.898Z,93907.25
2018-03-20T13:51:01.791Z,93909.27
2018-03-20T13:53:30.326Z,93910.13
2018-03-20T13:55:58.956Z,93925.50
2018-03-20T13:58:27.389Z,93909.67
2018-03-20T14:00:55.906Z,93895.22
2018-03-20T14:03:24.328Z,93898.52
2018-03-20T14:05:52.675Z,93902.31
2018-03-20T14:08:21.146Z,93911.98
2018-03-20T14:10:49.545Z,93907.49
2018-03-20T14:13:18.013Z,93914.70
2018-03-20T14:15:46.411Z,93912.73
2018-03-20T14:18:14.837Z,93917.66
2018-03-20T14:20:43.288Z,93901.46
2018-03-20T14:23:11.680Z,93921.88
2018-03-20T14:25:40.083Z,93919.52
2018-03-20T14:28:08.460Z,93919.70
2018-03-20T14:30:36.856Z,93915.48
2018-03-20T14:33:05.240Z,93934.81
2018-03-20T14:35:33.632Z,93939.09
2018-03-20T14:38:02.058Z,93937.97
2018-03-20T14:40:30.557Z,93930.95
2018-03-20T14:42:58.956Z,93946.06
2018-03-20T14:45:27.447Z,93952.90
2018-03-20T14:47:55.862Z,93953.27
2018-03-20T14:50:24.279Z,93944.03
2018-03-20T14:52:52.713Z,93927.17
2018-03-20T14:55:21.152Z,93944.59
2018-03-20T14:57:49.613Z,93947.27
2018-03-20T15:00:18.029Z,93942.27
2018-03-20T15:02:46.507Z,93941.52
2018-03-20T15:05:14.885Z,93947.30
2018-03-20T15:07:43.671Z,93898.31
2018-03-20T15:10:12.562Z,93951.75
2018-03-20T15:12:41.008Z,93947.22
2018-03-20T15:15:09.721Z,93957.51
2018-03-20T15:17:39.178Z,93955.13
2018-03-20T15:20:09.172Z,93964.95
2018-03-20T15:22:38.106Z,93967.63
2018-03-20T15:25:06.562Z,93968.93
2018-03-20T15:27:34.998Z,93964.45
2018-03-20T15:30:03.601Z,93966.50
2018-03-20T15:32:32.612Z,93974.29
2018-03-20T15:35:01.050Z,93972.86
2018-03-20T15:37:29.475Z,93975.13
2018-03-20T15:39:57.872Z,93987.37
2018-03-20T15:42:26.274Z,93975.70
2018-03-20T15:44:54.676Z,93979.50
2018-03-20T15:47:23.113Z,93976.25
2018-03-20T15:49:51.505Z,93980.73
2018-03-20T15:52:19.965Z,93986.17
2018-03-20T15:54:48.328Z,93979.95
2018-03-20T15:57:16.710Z,93981.40
2018-03-20T15:59:45.129Z,93988.27
2018-03-20T16:02:13.513Z,93999.72
2018-03-20T16:04:41.884Z,94004.28
2018-03-20T16:07:10.327Z,94014.42
2018-03-20T16:09:38.722Z,94031.98
2018-03-20T16:12:07.153Z,94024.21
2018-03-20T16:14:35.537Z,94017.39
2018-03-20T16:17:03.960Z,94017.44
2018-03-20T16:19:32.389Z,94014.88
2018-03-20T16:22:00.960Z,94023.42
2018-03-20T16:24:29.370Z,94022.50
2018-03-20T16:26:57.920Z,94040.79
2018-03-20T16:29:26.364Z,94044.02
2018-03-20T16:31:54.729Z,94045.30
2018-03-20T16:34:23.195Z,94052.98
2018-03-20T16:36:51.643Z,94053.55
2018-03-20T16:39:20.068Z,94053.55
2018-03-20T16:41:48.529Z,94058.23
2018-03-20T16:44:16.923Z,94070.61
2018-03-20T16:46:45.354Z,94069.73
2018-03-20T16:49:13.796Z,94077.00
2018-03-20T16:51:42.193Z,94078.02
2018-03-20T16:54:10.736Z,94065.13
2018-03-20T16:56:39.124Z,94088.22
2018-03-20T16:59:07.600Z,94094.13
2018-03-20T17:01:36.002Z,94091.89
2018-03-20T17:04:04.403Z,94095.20
2018-03-20T17:06:32.831Z,94097.11
2018-03-20T17:09:01.249Z,94103.91
2018-03-20T17:11:29.648Z,94113.08
2018-03-20T17:13:58.120Z,94112.66
2018-03-20T17:16:26.505Z,94111.80
2018-03-20T17:18:54.865Z,94109.78
2018-03-20T17:21:23.294Z,94110.36
2018-03-20T17:23:51.697Z,94121.56
2018-03-20T17:26:20.130Z,94135.38
2018-03-20T17:28:48.672Z,94135.13
2018-03-20T17:31:17.167Z,94139.76
2018-03-20T17:33:45.712Z,94138.58
2018-03-20T17:36:14.283Z,94146.28
2018-03-20T17:38:42.713Z,94154.96
2018-03-20T17:41:11.108Z,94154.91
2018-03-20T17:43:39.525Z,94157.61
2018-03-20T17:46:07.953Z,94160.42
2018-03-20T17:48:36.392Z,94161.62
2018-03-20T17:51:04.824Z,94161.80
2018-03-20T17:53:33.269Z,94165.39
2018-03-20T17:56:01.665Z,94168.37
2018-03-20T17:58:30.077Z,94175.19
2018-03-20T18:00:58.596Z,94177.45
2018-03-20T18:03:27.042Z,94184.21
2018-03-20T18:05:55.519Z,94193.84
2018-03-20T18:08:23.935Z,94200.09
2018-03-20T18:10:52.325Z,94203.17
2018-03-20T18:13:20.765Z,94201.30
2018-03-20T18:15:49.147Z,94204.44
2018-03-20T18:18:17.766Z,94188.66
2018-03-20T18:20:46.145Z,94197.98
2018-03-20T18:23:14.586Z,94202.25
2018-03-20T18:25:43.010Z,94208.16
2018-03-20T18:28:11.461Z,94209.92
2018-03-20T18:30:39.876Z,94210.55
2018-03-20T18:33:08.283Z,94206.91
2018-03-20T18:35:36.719Z,94199.46
2018-03-20T18:38:05.143Z,94198.70
2018-03-20T18:40:33.571Z,94206.62
2018-03-20T18:43:02.020Z,94212.59
2018-03-20T18:45:30.536Z,94217.05
2018-03-20T18:47:58.978Z,94218.13
2018-03-20T18:50:27.425Z,94218.31
2018-03-20T18:52:55.889Z,94214.17
2018-03-20T18:55:24.416Z,94213.93
2018-03-20T18:57:52.899Z,94207.55
2018-03-20T19:00:21.315Z,94215.30
2018-03-20T19:02:49.696Z,94221.95
2018-03-20T19:05:18.120Z,94227.63
2018-03-20T19:07:46.547Z,94236.15
2018-03-20T19:10:14.991Z,94248.83
2018-03-20T19:12:43.420Z,94249.83
2018-03-20T19:15:11.857Z,94254.98
2018-03-20T19:17:40.233Z,94259.94
2018-03-20T19:20:08.675Z,94260.13
2018-03-20T19:22:37.104Z,94260.75
2018-03-20T19:25:05.513Z,94256.69
2018-03-20T19:27:34.016Z,94262.63
2018-03-20T19:30:02.512Z,94264.83
2018-03-20T19:32:31.044Z,94269.34
2018-03-20T19:34:59.413Z,94266.38
2018-03-20T19:37:27.832Z,94271.33
2018-03-20T19:39:56.313Z,94268.83
2018-03-20T19:42:24.820Z,94268.30
2018-03-20T19:44:53.231Z,94286.40
2018-03-20T19:47:21.622Z,94284.16
2018-03-20T19:49:50.037Z,94285.30
2018-03-20T19:52:18.403Z,94292.99
2018-03-20T19:54:46.850Z,94285.16
2018-03-20T19:57:15.231Z,94291.48
2018-03-20T19:59:43.665Z,94297.34
2018-03-20T20:02:12.074Z,94302.97
2018-03-20T20:04:40.504Z,94303.98
2018-03-20T20:07:08.885Z,94311.31
2018-03-20T20:09:37.256Z,94306.38
2018-03-20T20:12:05.637Z,94313.03
2018-03-20T20:14:34.227Z,94300.77
2018-03-20T20:17:02.552Z,94306.22
2018-03-20T20:19:30.985Z,94287.74
2018-03-20T20:21:59.409Z,94309.81
2018-03-20T20:24:27.837Z,94312.36
2018-03-20T20:26:56.253Z,94310.67
2018-03-20T20:29:24.638Z,94313.75
2018-03-20T20:31:53.033Z,94315.59
2018-03-20T20:34:21.404Z,94316.48
2018-03-20T20:36:49.821Z,94314.63
2018-03-20T20:39:18.216Z,94329.53
2018-03-20T20:41:46.654Z,94319.13
2018-03-20T20:44:15.181Z,94318.14
2018-03-20T20:46:43.575Z,94316.41
2018-03-20T20:49:11.987Z,94316.54
2018-03-20T20:51:40.437Z,94317.34
2018-03-20T20:54:09.047Z,94323.27
2018-03-20T20:56:37.500Z,94320.87
2018-03-20T20:59:05.873Z,94331.28
2018-03-20T21:01:34.298Z,94330.21
2018-03-20T21:04:02.683Z,94327.63
2018-03-20T21:06:31.173Z,94322.72
2018-03-20T21:08:59.672Z,94325.39
2018-03-20T21:11:28.103Z,94323.87
2018-03-20T21:13:56.478Z,94328.27
2018-03-20T21:16:24.901Z,94327.01
2018-03-20T21:18:53.316Z,94328.78
2018-03-20T21:21:21.798Z,94334.62
2018-03-20T21:23:50.285Z,94336.65
2018-03-20T21:26:18.689Z,94334.84
2018-03-20T21:28:47.083Z,94341.66
2018-03-20T21:31:15.501Z,94334.19
2018-03-20T21:33:43.952Z,94337.33
2018-03-20T21:36:12.396Z,94337.38
2018-03-20T21:38:40.794Z,94336.45
2018-03-20T21:41:09.170Z,94338.48
2018-03-20T21:43:37.630Z,94334.16
2018-03-20T21:46:06.013Z,94342.32
2018-03-20T21:48:34.427Z,94337.67
2018-03-20T21:51:02.829Z,94347.44
2018-03-20T21:53:31.212Z,94347.24
2018-03-20T21:55:59.630Z,94353.83
2018-03-20T21:58:28.016Z,94357.38
2018-03-20T22:00:56.417Z,94355.09
2018-03-20T22:03:24.864Z,94361.70
2018-03-20T22:05:53.283Z,94359.35
2018-03-20T22:08:22.174Z,94363.45
2018-03-20T22:10:50.612Z,94359.72
2018-03-20T22:13:19.024Z,94358.13
2018-03-20T22:15:47.414Z,94356.65
2018-03-20T22:18:15.818Z,94357.18
2018-03-20T22:20:44.367Z,94363.55
2018-03-20T22:23:12.746Z,94365.54
2018-03-20T22:25:41.137Z,94367.11
2018-03-20T22:28:09.528Z,94366.37
2018-03-20T22:30:37.994Z,94338.30
2018-03-20T22:33:06.383Z,94356.95
2018-03-20T22:35:34.908Z,94364.82
2018-03-20T22:38:03.446Z,94362.25
2018-03-20T22:40:31.846Z,94349.48
2018-03-20T22:43:00.264Z,94354.00
2018-03-20T22:45:28.631Z,94354.66
2018-03-20T22:47:56.997Z,94357.39
2018-03-20T22:50:25.382Z,94351.59
2018-03-20T22:52:53.805Z,94348.19
2018-03-20T22:55:22.218Z,94352.44
2018-03-20T22:57:50.597Z,94352.79
2018-03-20T23:00:29.461Z,94361.86
2018-03-20T23:02:57.830Z,94356.39
2018-03-20T23:05:26.256Z,94339.98
2018-03-20T23:10:52.756Z,94370.13
2018-03-20T23:13:21.125Z,94379.00
2018-03-20T23:15:49.503Z,94377.14
2018-03-20T23:18:17.963Z,94381.08
2018-03-20T23:20:46.328Z,94380.25
2018-03-20T23:23:14.691Z,94381.48
2018-03-20T23:25:43.116Z,94384.67
2018-03-20T23:28:11.545Z,94398.66
2018-03-20T23:30:39.988Z,94399.52
2018-03-20T23:33:08.416Z,94392.12
2018-03-20T23:35:36.833Z,94387.56
2018-03-20T23:38:05.361Z,94388.06
2018-03-20T23:40:33.760Z,94393.30
2018-03-20T23:43:02.140Z,94385.66
2018-03-20T23:45:30.542Z,94386.24
2018-03-20T23:47:58.893Z,94400.13
2018-03-20T23:50:27.317Z,94396.27
2018-03-20T23:52:55.669Z,94398.64
2018-03-20T23:55:24.089Z,94411.50
2018-03-20T23:57:52.485Z,94414.30
